sensor_id;sensor_type;location;lat;lon;timestamp;temperature;humidity
22578;DHT22;11455;52.390;13.028;2023-04-25T00:00:04;12.00;1.00
22578;DHT22;11455;52.390;13.028;2023-04-25T00:02:37;12.00;1.00
22578;DHT22;11455;52.390;13.028;2023-04-25T00:05:03;12.00;1.00
22578;DHT22;11455;52.390;13.028;2023-04-25T00:07:30;12.00;1.00
22578;DHT22;11455;52.390;13.028;2023-04-25T00:09:56;12.00;1.00
22578;DHT22;11455;52.390;13.028;2023-04-25T00:12:22;12.00;1.00
22578;DHT22;11455;52.390;13.028;2023-04-25T00:14:48;12.00;1.00
22578;DHT22;11455;52.390;13.028;2023-04-25T00:17:15;11.90;1.00
22578;DHT22;11455;52.390;13.028;2023-04-25T00:19:44;11.80;1.00
22578;DHT22;11455;52.390;13.028;2023-04-25T00:22:11;11.80;1.00
22578;DHT22;11455;52.390;13.028;2023-04-25T00:24:37;11.80;1.00
22578;DHT22;11455;52.390;13.028;2023-04-25T00:27:03;11.90;1.00
22578;DHT22;11455;52.390;13.028;2023-04-25T00:29:28;11.80;1.00
22578;DHT22;11455;52.390;13.028;2023-04-25T00:31:54;11.80;1.00
22578;DHT22;11455;52.390;13.028;2023-04-25T00:34:20;11.80;1.00
22578;DHT22;11455;52.390;13.028;2023-04-25T00:36:45;11.80;1.00
22578;DHT22;11455;52.390;13.028;2023-04-25T00:39:12;11.80;1.00
22578;DHT22;11455;52.390;13.028;2023-04-25T00:41:37;11.90;1.00
22578;DHT22;11455;52.390;13.028;2023-04-25T00:44:03;11.90;1.00
22578;DHT22;11455;52.390;13.028;2023-04-25T00:46:30;11.90;1.00
22578;DHT22;11455;52.390;13.028;2023-04-25T00:48:58;11.90;1.00
22578;DHT22;11455;52.390;13.028;2023-04-25T00:51:24;11.80;1.00
22578;DHT22;11455;52.390;13.028;2023-04-25T00:53:53;11.90;1.00
22578;DHT22;11455;52.390;13.028;2023-04-25T00:56:19;11.90;1.00
22578;DHT22;11455;52.390;13.028;2023-04-25T00:58:45;11.90;1.00
22578;DHT22;11455;52.390;13.028;2023-04-25T01:01:11;11.90;1.00
22578;DHT22;11455;52.390;13.028;2023-04-25T01:03:40;11.90;1.00
22578;DHT22;11455;52.390;13.028;2023-04-25T01:06:07;11.90;1.00
22578;DHT22;11455;52.390;13.028;2023-04-25T01:08:33;11.90;1.00
22578;DHT22;11455;52.390;13.028;2023-04-25T01:10:59;11.80;1.00
22578;DHT22;11455;52.390;13.028;2023-04-25T01:13:24;11.80;1.00
22578;DHT22;11455;52.390;13.028;2023-04-25T01:15:54;11.90;1.00
22578;DHT22;11455;52.390;13.028;2023-04-25T01:18:20;11.90;1.00
22578;DHT22;11455;52.390;13.028;2023-04-25T01:20:46;11.80;1.00
22578;DHT22;11455;52.390;13.028;2023-04-25T01:23:12;11.80;1.00
22578;DHT22;11455;52.390;13.028;2023-04-25T01:25:38;11.80;1.00
22578;DHT22;11455;52.390;13.028;2023-04-25T01:28:04;11.70;1.00
22578;DHT22;11455;52.390;13.028;2023-04-25T01:30:31;11.70;1.00
22578;DHT22;11455;52.390;13.028;2023-04-25T01:32:56;11.70;1.00
22578;DHT22;11455;52.390;13.028;2023-04-25T01:35:22;11.60;1.00
22578;DHT22;11455;52.390;13.028;2023-04-25T01:37:52;11.60;1.00
22578;DHT22;11455;52.390;13.028;2023-04-25T01:40:18;11.50;1.00
22578;DHT22;11455;52.390;13.028;2023-04-25T01:42:46;11.60;1.00
22578;DHT22;11455;52.390;13.028;2023-04-25T01:45:12;11.50;1.00
22578;DHT22;11455;52.390;13.028;2023-04-25T01:47:38;11.50;1.00
22578;DHT22;11455;52.390;13.028;2023-04-25T01:50:05;11.50;1.00
22578;DHT22;11455;52.390;13.028;2023-04-25T01:52:31;11.50;1.00
22578;DHT22;11455;52.390;13.028;2023-04-25T01:54:57;11.40;1.00
22578;DHT22;11455;52.390;13.028;2023-04-25T01:57:26;11.40;1.00
22578;DHT22;11455;52.390;13.028;2023-04-25T01:59:54;11.40;1.00
22578;DHT22;11455;52.390;13.028;2023-04-25T02:02:39;11.40;1.00
22578;DHT22;11455;52.390;13.028;2023-04-25T02:05:10;11.40;1.00
22578;DHT22;11455;52.390;13.028;2023-04-25T02:07:38;11.50;1.00
22578;DHT22;11455;52.390;13.028;2023-04-25T02:10:04;11.50;1.00
22578;DHT22;11455;52.390;13.028;2023-04-25T02:12:35;11.40;1.00
22578;DHT22;11455;52.390;13.028;2023-04-25T02:15:13;11.40;1.00
22578;DHT22;11455;52.390;13.028;2023-04-25T02:17:48;11.30;1.00
22578;DHT22;11455;52.390;13.028;2023-04-25T02:20:14;11.40;1.00
22578;DHT22;11455;52.390;13.028;2023-04-25T02:22:41;11.40;1.00
22578;DHT22;11455;52.390;13.028;2023-04-25T02:25:09;11.40;1.00
22578;DHT22;11455;52.390;13.028;2023-04-25T02:27:35;11.40;1.00
22578;DHT22;11455;52.390;13.028;2023-04-25T02:30:04;11.40;1.00
22578;DHT22;11455;52.390;13.028;2023-04-25T02:32:32;11.40;1.00
22578;DHT22;11455;52.390;13.028;2023-04-25T02:34:59;11.40;1.00
22578;DHT22;11455;52.390;13.028;2023-04-25T02:37:29;11.40;1.00
22578;DHT22;11455;52.390;13.028;2023-04-25T02:39:55;11.40;1.00
22578;DHT22;11455;52.390;13.028;2023-04-25T02:42:21;11.40;1.00
22578;DHT22;11455;52.390;13.028;2023-04-25T02:44:46;11.40;1.00
22578;DHT22;11455;52.390;13.028;2023-04-25T02:47:12;11.40;1.00
22578;DHT22;11455;52.390;13.028;2023-04-25T02:49:37;11.40;1.00
22578;DHT22;11455;52.390;13.028;2023-04-25T02:52:03;11.40;1.00
22578;DHT22;11455;52.390;13.028;2023-04-25T02:54:32;11.40;1.00
22578;DHT22;11455;52.390;13.028;2023-04-25T02:56:58;11.40;1.00
22578;DHT22;11455;52.390;13.028;2023-04-25T02:59:28;11.30;1.00
22578;DHT22;11455;52.390;13.028;2023-04-25T03:01:54;11.30;1.00
22578;DHT22;11455;52.390;13.028;2023-04-25T03:04:19;11.20;1.00
22578;DHT22;11455;52.390;13.028;2023-04-25T03:06:46;11.30;1.00
22578;DHT22;11455;52.390;13.028;2023-04-25T03:09:12;11.30;1.00
22578;DHT22;11455;52.390;13.028;2023-04-25T03:11:38;11.30;1.00
22578;DHT22;11455;52.390;13.028;2023-04-25T03:14:04;11.30;1.00
22578;DHT22;11455;52.390;13.028;2023-04-25T03:16:30;11.40;1.00
22578;DHT22;11455;52.390;13.028;2023-04-25T03:18:56;11.40;1.00
22578;DHT22;11455;52.390;13.028;2023-04-25T03:21:22;11.40;1.00
22578;DHT22;11455;52.390;13.028;2023-04-25T03:23:47;11.30;1.00
22578;DHT22;11455;52.390;13.028;2023-04-25T03:26:16;11.30;1.00
22578;DHT22;11455;52.390;13.028;2023-04-25T03:28:42;11.20;1.00
22578;DHT22;11455;52.390;13.028;2023-04-25T03:31:11;11.10;1.00
22578;DHT22;11455;52.390;13.028;2023-04-25T03:33:37;11.10;1.00
22578;DHT22;11455;52.390;13.028;2023-04-25T03:36:03;11.20;1.00
22578;DHT22;11455;52.390;13.028;2023-04-25T03:38:29;11.30;1.00
22578;DHT22;11455;52.390;13.028;2023-04-25T03:40:55;11.30;1.00
22578;DHT22;11455;52.390;13.028;2023-04-25T03:43:26;11.30;1.00
22578;DHT22;11455;52.390;13.028;2023-04-25T03:46:00;11.20;1.00
22578;DHT22;11455;52.390;13.028;2023-04-25T03:48:26;11.30;1.00
22578;DHT22;11455;52.390;13.028;2023-04-25T03:50:53;11.20;1.00
22578;DHT22;11455;52.390;13.028;2023-04-25T03:53:18;11.20;1.00
22578;DHT22;11455;52.390;13.028;2023-04-25T03:56:03;11.30;1.00
22578;DHT22;11455;52.390;13.028;2023-04-25T03:58:32;11.30;1.00
22578;DHT22;11455;52.390;13.028;2023-04-25T04:00:58;11.30;1.00
22578;DHT22;11455;52.390;13.028;2023-04-25T04:03:24;11.30;1.00
22578;DHT22;11455;52.390;13.028;2023-04-25T04:05:49;11.20;1.00
22578;DHT22;11455;52.390;13.028;2023-04-25T04:08:16;11.20;1.00
22578;DHT22;11455;52.390;13.028;2023-04-25T04:10:42;11.20;1.00
22578;DHT22;11455;52.390;13.028;2023-04-25T04:13:08;11.20;1.00
22578;DHT22;11455;52.390;13.028;2023-04-25T04:15:33;11.20;1.00
22578;DHT22;11455;52.390;13.028;2023-04-25T04:17:59;11.30;1.00
22578;DHT22;11455;52.390;13.028;2023-04-25T04:20:28;11.30;1.00
22578;DHT22;11455;52.390;13.028;2023-04-25T04:22:55;11.30;1.00
22578;DHT22;11455;52.390;13.028;2023-04-25T04:25:22;11.20;1.00
22578;DHT22;11455;52.390;13.028;2023-04-25T04:28:14;11.20;1.00
22578;DHT22;11455;52.390;13.028;2023-04-25T04:30:49;11.20;1.00
22578;DHT22;11455;52.390;13.028;2023-04-25T04:33:17;11.30;1.00
22578;DHT22;11455;52.390;13.028;2023-04-25T04:35:45;11.30;1.00
22578;DHT22;11455;52.390;13.028;2023-04-25T04:38:13;11.30;1.00
22578;DHT22;11455;52.390;13.028;2023-04-25T04:40:40;11.20;1.00
22578;DHT22;11455;52.390;13.028;2023-04-25T04:43:30;11.20;1.00
22578;DHT22;11455;52.390;13.028;2023-04-25T04:46:06;11.20;1.00
22578;DHT22;11455;52.390;13.028;2023-04-25T04:48:41;11.30;1.00
22578;DHT22;11455;52.390;13.028;2023-04-25T04:51:45;11.30;1.00
22578;DHT22;11455;52.390;13.028;2023-04-25T04:54:29;11.30;1.00
22578;DHT22;11455;52.390;13.028;2023-04-25T04:57:33;11.30;1.00
22578;DHT22;11455;52.390;13.028;2023-04-25T05:00:23;11.30;1.00
22578;DHT22;11455;52.390;13.028;2023-04-25T05:03:16;11.30;1.00
22578;DHT22;11455;52.390;13.028;2023-04-25T05:06:03;11.30;1.00
22578;DHT22;11455;52.390;13.028;2023-04-25T05:08:36;11.10;1.00
22578;DHT22;11455;52.390;13.028;2023-04-25T05:11:22;11.10;1.50
22578;DHT22;11455;52.390;13.028;2023-04-25T05:13:58;11.20;1.00
22578;DHT22;11455;52.390;13.028;2023-04-25T05:16:42;11.30;1.00
22578;DHT22;11455;52.390;13.028;2023-04-25T05:19:26;11.30;1.00
22578;DHT22;11455;52.390;13.028;2023-04-25T05:22:12;11.30;1.00
22578;DHT22;11455;52.390;13.028;2023-04-25T05:24:51;11.30;1.00
22578;DHT22;11455;52.390;13.028;2023-04-25T05:27:30;11.30;1.00
22578;DHT22;11455;52.390;13.028;2023-04-25T05:29:59;11.30;1.00
22578;DHT22;11455;52.390;13.028;2023-04-25T05:32:33;11.30;1.00
22578;DHT22;11455;52.390;13.028;2023-04-25T05:34:59;11.30;1.00
22578;DHT22;11455;52.390;13.028;2023-04-25T05:37:28;11.30;1.00
22578;DHT22;11455;52.390;13.028;2023-04-25T05:40:04;11.40;1.00
22578;DHT22;11455;52.390;13.028;2023-04-25T05:42:58;11.40;1.00
22578;DHT22;11455;52.390;13.028;2023-04-25T05:45:46;11.50;1.00
22578;DHT22;11455;52.390;13.028;2023-04-25T05:48:30;11.50;1.00
22578;DHT22;11455;52.390;13.028;2023-04-25T05:51:00;11.50;1.00
22578;DHT22;11455;52.390;13.028;2023-04-25T05:53:52;11.50;1.00
22578;DHT22;11455;52.390;13.028;2023-04-25T05:56:18;11.50;1.00
22578;DHT22;11455;52.390;13.028;2023-04-25T05:58:45;11.50;1.00
22578;DHT22;11455;52.390;13.028;2023-04-25T06:01:12;11.40;1.00
22578;DHT22;11455;52.390;13.028;2023-04-25T06:03:38;11.40;1.00
22578;DHT22;11455;52.390;13.028;2023-04-25T06:06:04;11.40;1.00
22578;DHT22;11455;52.390;13.028;2023-04-25T06:08:30;11.50;1.00
22578;DHT22;11455;52.390;13.028;2023-04-25T06:10:56;11.40;1.00
22578;DHT22;11455;52.390;13.028;2023-04-25T06:13:22;11.30;1.00
22578;DHT22;11455;52.390;13.028;2023-04-25T06:15:51;11.30;1.00
22578;DHT22;11455;52.390;13.028;2023-04-25T06:18:16;11.30;1.00
22578;DHT22;11455;52.390;13.028;2023-04-25T06:20:42;11.20;1.00
22578;DHT22;11455;52.390;13.028;2023-04-25T06:23:08;11.30;1.00
22578;DHT22;11455;52.390;13.028;2023-04-25T06:25:48;11.20;1.00
22578;DHT22;11455;52.390;13.028;2023-04-25T06:28:14;11.20;1.00
22578;DHT22;11455;52.390;13.028;2023-04-25T06:30:41;11.30;1.00
22578;DHT22;11455;52.390;13.028;2023-04-25T06:33:11;11.30;1.00
22578;DHT22;11455;52.390;13.028;2023-04-25T06:35:38;11.40;1.00
22578;DHT22;11455;52.390;13.028;2023-04-25T06:38:06;11.30;1.00
22578;DHT22;11455;52.390;13.028;2023-04-25T06:40:31;11.20;1.00
22578;DHT22;11455;52.390;13.028;2023-04-25T06:42:57;11.00;6.60
22578;DHT22;11455;52.390;13.028;2023-04-25T06:45:41;11.00;22.00
22578;DHT22;11455;52.390;13.028;2023-04-25T06:48:08;10.90;38.60
22578;DHT22;11455;52.390;13.028;2023-04-25T06:50:34;10.90;42.70
22578;DHT22;11455;52.390;13.028;2023-04-25T06:53:01;10.80;36.30
22578;DHT22;11455;52.390;13.028;2023-04-25T06:55:28;10.80;42.10
22578;DHT22;11455;52.390;13.028;2023-04-25T06:58:07;10.80;53.80
22578;DHT22;11455;52.390;13.028;2023-04-25T07:00:54;10.80;64.40
22578;DHT22;11455;52.390;13.028;2023-04-25T07:03:22;10.70;99.90
22578;DHT22;11455;52.390;13.028;2023-04-25T07:05:50;10.50;99.90
22578;DHT22;11455;52.390;13.028;2023-04-25T07:08:16;10.50;99.90
22578;DHT22;11455;52.390;13.028;2023-04-25T07:10:42;10.50;99.90
22578;DHT22;11455;52.390;13.028;2023-04-25T07:13:08;10.50;93.20
22578;DHT22;11455;52.390;13.028;2023-04-25T07:15:33;10.40;71.70
22578;DHT22;11455;52.390;13.028;2023-04-25T07:18:00;10.40;88.50
22578;DHT22;11455;52.390;13.028;2023-04-25T07:20:26;10.40;84.60
22578;DHT22;11455;52.390;13.028;2023-04-25T07:22:53;10.30;89.60
22578;DHT22;11455;52.390;13.028;2023-04-25T07:25:19;10.40;91.80
22578;DHT22;11455;52.390;13.028;2023-04-25T07:27:45;10.40;84.70
22578;DHT22;11455;52.390;13.028;2023-04-25T07:30:14;10.40;62.70
22578;DHT22;11455;52.390;13.028;2023-04-25T07:32:40;10.40;79.50
22578;DHT22;11455;52.390;13.028;2023-04-25T07:35:09;10.50;56.80
22578;DHT22;11455;52.390;13.028;2023-04-25T07:37:35;10.50;45.60
22578;DHT22;11455;52.390;13.028;2023-04-25T07:40:21;10.60;43.50
22578;DHT22;11455;52.390;13.028;2023-04-25T07:42:54;10.60;33.00
22578;DHT22;11455;52.390;13.028;2023-04-25T07:45:30;10.70;42.40
22578;DHT22;11455;52.390;13.028;2023-04-25T07:47:56;10.70;37.40
22578;DHT22;11455;52.390;13.028;2023-04-25T07:50:23;10.70;37.40
22578;DHT22;11455;52.390;13.028;2023-04-25T07:52:48;10.60;26.70
22578;DHT22;11455;52.390;13.028;2023-04-25T07:55:30;10.40;29.20
22578;DHT22;11455;52.390;13.028;2023-04-25T07:58:01;10.30;36.90
22578;DHT22;11455;52.390;13.028;2023-04-25T08:00:29;10.20;80.20
22578;DHT22;11455;52.390;13.028;2023-04-25T08:03:15;10.30;88.50
22578;DHT22;11455;52.390;13.028;2023-04-25T08:05:41;10.30;53.70
22578;DHT22;11455;52.390;13.028;2023-04-25T08:08:07;10.20;55.70
22578;DHT22;11455;52.390;13.028;2023-04-25T08:10:33;10.20;77.10
22578;DHT22;11455;52.390;13.028;2023-04-25T08:12:59;10.40;63.00
22578;DHT22;11455;52.390;13.028;2023-04-25T08:15:25;10.50;36.10
22578;DHT22;11455;52.390;13.028;2023-04-25T08:17:51;10.60;9.40
22578;DHT22;11455;52.390;13.028;2023-04-25T08:20:17;10.60;1.00
22578;DHT22;11455;52.390;13.028;2023-04-25T08:22:43;10.50;1.00
22578;DHT22;11455;52.390;13.028;2023-04-25T08:25:27;10.50;9.90
22578;DHT22;11455;52.390;13.028;2023-04-25T08:27:53;10.60;1.00
22578;DHT22;11455;52.390;13.028;2023-04-25T08:30:21;10.70;1.00
22578;DHT22;11455;52.390;13.028;2023-04-25T08:32:46;10.80;1.00
22578;DHT22;11455;52.390;13.028;2023-04-25T08:35:27;10.90;1.00
22578;DHT22;11455;52.390;13.028;2023-04-25T08:37:53;10.80;1.00
22578;DHT22;11455;52.390;13.028;2023-04-25T08:40:19;10.90;1.00
22578;DHT22;11455;52.390;13.028;2023-04-25T08:42:57;11.00;1.00
22578;DHT22;11455;52.390;13.028;2023-04-25T08:45:27;11.00;1.00
22578;DHT22;11455;52.390;13.028;2023-04-25T08:47:53;11.00;1.00
22578;DHT22;11455;52.390;13.028;2023-04-25T08:50:19;10.90;1.00
22578;DHT22;11455;52.390;13.028;2023-04-25T08:52:48;11.00;1.00
22578;DHT22;11455;52.390;13.028;2023-04-25T08:55:15;11.10;1.00
22578;DHT22;11455;52.390;13.028;2023-04-25T08:57:41;11.10;1.00
22578;DHT22;11455;52.390;13.028;2023-04-25T09:00:11;11.10;1.00
22578;DHT22;11455;52.390;13.028;2023-04-25T09:02:39;11.20;1.00
22578;DHT22;11455;52.390;13.028;2023-04-25T09:05:07;11.20;1.00
22578;DHT22;11455;52.390;13.028;2023-04-25T09:07:36;11.10;1.00
22578;DHT22;11455;52.390;13.028;2023-04-25T09:10:02;10.90;1.00
22578;DHT22;11455;52.390;13.028;2023-04-25T09:12:31;11.00;1.00
22578;DHT22;11455;52.390;13.028;2023-04-25T09:15:05;11.10;1.00
22578;DHT22;11455;52.390;13.028;2023-04-25T09:17:46;11.20;1.00
22578;DHT22;11455;52.390;13.028;2023-04-25T09:20:12;11.50;1.00
22578;DHT22;11455;52.390;13.028;2023-04-25T09:22:39;11.60;1.00
22578;DHT22;11455;52.390;13.028;2023-04-25T09:25:08;11.70;1.00
22578;DHT22;11455;52.390;13.028;2023-04-25T09:27:34;11.70;1.00
22578;DHT22;11455;52.390;13.028;2023-04-25T09:30:13;11.40;1.00
22578;DHT22;11455;52.390;13.028;2023-04-25T09:33:04;11.20;1.00
22578;DHT22;11455;52.390;13.028;2023-04-25T09:35:34;11.10;1.00
22578;DHT22;11455;52.390;13.028;2023-04-25T09:38:00;11.10;1.00
22578;DHT22;11455;52.390;13.028;2023-04-25T09:40:46;11.20;1.00
22578;DHT22;11455;52.390;13.028;2023-04-25T09:43:20;11.50;1.00
22578;DHT22;11455;52.390;13.028;2023-04-25T09:45:46;11.80;1.00
22578;DHT22;11455;52.390;13.028;2023-04-25T09:48:21;11.90;1.00
22578;DHT22;11455;52.390;13.028;2023-04-25T09:51:08;12.00;1.00
22578;DHT22;11455;52.390;13.028;2023-04-25T09:53:35;12.00;1.00
22578;DHT22;11455;52.390;13.028;2023-04-25T09:56:11;12.00;1.00
22578;DHT22;11455;52.390;13.028;2023-04-25T09:58:38;11.90;1.00
22578;DHT22;11455;52.390;13.028;2023-04-25T10:01:05;11.60;1.00
22578;DHT22;11455;52.390;13.028;2023-04-25T10:03:40;11.50;1.00
22578;DHT22;11455;52.390;13.028;2023-04-25T10:06:19;11.50;1.00
22578;DHT22;11455;52.390;13.028;2023-04-25T10:08:49;11.40;1.00
22578;DHT22;11455;52.390;13.028;2023-04-25T10:11:16;11.50;1.00
22578;DHT22;11455;52.390;13.028;2023-04-25T10:13:42;11.50;1.00
22578;DHT22;11455;52.390;13.028;2023-04-25T10:16:08;11.50;1.00
22578;DHT22;11455;52.390;13.028;2023-04-25T10:18:39;11.60;1.00
22578;DHT22;11455;52.390;13.028;2023-04-25T10:21:05;11.60;1.00
22578;DHT22;11455;52.390;13.028;2023-04-25T10:23:32;11.80;1.00
22578;DHT22;11455;52.390;13.028;2023-04-25T10:25:59;11.80;1.00
22578;DHT22;11455;52.390;13.028;2023-04-25T10:28:26;11.70;1.00
22578;DHT22;11455;52.390;13.028;2023-04-25T10:31:01;11.50;1.00
22578;DHT22;11455;52.390;13.028;2023-04-25T10:33:38;11.30;1.00
22578;DHT22;11455;52.390;13.028;2023-04-25T10:36:14;11.30;1.00
22578;DHT22;11455;52.390;13.028;2023-04-25T10:38:41;11.20;1.00
22578;DHT22;11455;52.390;13.028;2023-04-25T10:41:08;11.10;1.00
22578;DHT22;11455;52.390;13.028;2023-04-25T10:43:35;11.10;1.00
22578;DHT22;11455;52.390;13.028;2023-04-25T10:53:46;11.10;1.00
22578;DHT22;11455;52.390;13.028;2023-04-25T10:58:47;11.30;1.00
22578;DHT22;11455;52.390;13.028;2023-04-25T11:01:13;11.30;1.00
22578;DHT22;11455;52.390;13.028;2023-04-25T11:03:40;11.30;1.00
22578;DHT22;11455;52.390;13.028;2023-04-25T11:06:07;11.40;1.00
22578;DHT22;11455;52.390;13.028;2023-04-25T11:08:49;11.40;1.00
22578;DHT22;11455;52.390;13.028;2023-04-25T11:11:18;11.40;1.00
22578;DHT22;11455;52.390;13.028;2023-04-25T11:13:48;11.30;1.00
22578;DHT22;11455;52.390;13.028;2023-04-25T11:16:15;11.10;1.00
22578;DHT22;11455;52.390;13.028;2023-04-25T11:18:41;11.00;1.00
22578;DHT22;11455;52.390;13.028;2023-04-25T11:21:07;10.90;1.00
22578;DHT22;11455;52.390;13.028;2023-04-25T11:23:33;10.80;1.00
22578;DHT22;11455;52.390;13.028;2023-04-25T11:26:01;10.70;1.00
22578;DHT22;11455;52.390;13.028;2023-04-25T11:28:26;10.80;1.00
22578;DHT22;11455;52.390;13.028;2023-04-25T11:30:53;10.80;1.00
22578;DHT22;11455;52.390;13.028;2023-04-25T11:33:23;10.80;1.00
22578;DHT22;11455;52.390;13.028;2023-04-25T11:35:49;10.90;1.00
22578;DHT22;11455;52.390;13.028;2023-04-25T11:38:15;10.90;1.00
22578;DHT22;11455;52.390;13.028;2023-04-25T11:40:40;11.00;1.00
22578;DHT22;11455;52.390;13.028;2023-04-25T11:43:06;11.00;1.00
22578;DHT22;11455;52.390;13.028;2023-04-25T11:45:36;11.20;1.00
22578;DHT22;11455;52.390;13.028;2023-04-25T11:48:02;11.20;1.00
22578;DHT22;11455;52.390;13.028;2023-04-25T11:50:28;11.10;1.00
22578;DHT22;11455;52.390;13.028;2023-04-25T11:52:55;11.10;1.00
22578;DHT22;11455;52.390;13.028;2023-04-25T11:55:21;11.20;1.00
22578;DHT22;11455;52.390;13.028;2023-04-25T11:57:48;11.10;1.00
22578;DHT22;11455;52.390;13.028;2023-04-25T12:00:18;11.00;1.00
22578;DHT22;11455;52.390;13.028;2023-04-25T12:02:45;11.00;1.00
22578;DHT22;11455;52.390;13.028;2023-04-25T12:05:12;11.00;1.00
22578;DHT22;11455;52.390;13.028;2023-04-25T12:07:38;11.00;1.00
22578;DHT22;11455;52.390;13.028;2023-04-25T12:10:04;11.00;1.00
22578;DHT22;11455;52.390;13.028;2023-04-25T12:12:33;11.20;1.00
22578;DHT22;11455;52.390;13.028;2023-04-25T12:15:34;11.40;1.00
22578;DHT22;11455;52.390;13.028;2023-04-25T12:17:53;11.60;1.00
22578;DHT22;11455;52.390;13.028;2023-04-25T12:20:26;11.80;1.00
22578;DHT22;11455;52.390;13.028;2023-04-25T12:22:52;11.80;1.00
22578;DHT22;11455;52.390;13.028;2023-04-25T12:25:39;11.80;1.00
22578;DHT22;11455;52.390;13.028;2023-04-25T12:28:11;11.60;1.00
22578;DHT22;11455;52.390;13.028;2023-04-25T12:33:22;11.20;1.00
22578;DHT22;11455;52.390;13.028;2023-04-25T12:35:47;11.20;1.00
22578;DHT22;11455;52.390;13.028;2023-04-25T12:38:34;11.20;1.00
22578;DHT22;11455;52.390;13.028;2023-04-25T12:41:03;11.30;1.00
22578;DHT22;11455;52.390;13.028;2023-04-25T12:43:29;11.20;1.00
22578;DHT22;11455;52.390;13.028;2023-04-25T12:45:55;11.10;1.00
22578;DHT22;11455;52.390;13.028;2023-04-25T12:48:22;10.90;1.00
22578;DHT22;11455;52.390;13.028;2023-04-25T12:50:50;10.90;1.00
22578;DHT22;11455;52.390;13.028;2023-04-25T12:55:42;10.90;1.00
22578;DHT22;11455;52.390;13.028;2023-04-25T12:58:08;10.80;1.00
22578;DHT22;11455;52.390;13.028;2023-04-25T13:00:34;10.80;1.00
22578;DHT22;11455;52.390;13.028;2023-04-25T13:02:59;10.90;1.00
22578;DHT22;11455;52.390;13.028;2023-04-25T13:05:25;11.10;1.00
22578;DHT22;11455;52.390;13.028;2023-04-25T13:07:51;11.10;1.00
22578;DHT22;11455;52.390;13.028;2023-04-25T13:10:17;11.10;1.00
22578;DHT22;11455;52.390;13.028;2023-04-25T13:12:43;11.10;1.00
22578;DHT22;11455;52.390;13.028;2023-04-25T13:15:09;11.10;1.00
22578;DHT22;11455;52.390;13.028;2023-04-25T13:17:38;11.10;1.00
22578;DHT22;11455;52.390;13.028;2023-04-25T13:20:06;11.40;1.00
22578;DHT22;11455;52.390;13.028;2023-04-25T13:22:34;11.70;1.00
22578;DHT22;11455;52.390;13.028;2023-04-25T13:25:02;12.00;1.00
22578;DHT22;11455;52.390;13.028;2023-04-25T13:27:28;12.10;1.00
22578;DHT22;11455;52.390;13.028;2023-04-25T13:29:54;12.00;1.00
22578;DHT22;11455;52.390;13.028;2023-04-25T13:32:20;11.90;1.00
22578;DHT22;11455;52.390;13.028;2023-04-25T13:34:45;11.80;1.00
22578;DHT22;11455;52.390;13.028;2023-04-25T13:37:11;11.70;1.00
22578;DHT22;11455;52.390;13.028;2023-04-25T13:39:37;11.70;1.00
22578;DHT22;11455;52.390;13.028;2023-04-25T13:42:02;11.40;1.00
22578;DHT22;11455;52.390;13.028;2023-04-25T13:44:28;11.40;1.00
22578;DHT22;11455;52.390;13.028;2023-04-25T13:46:54;11.30;1.00
22578;DHT22;11455;52.390;13.028;2023-04-25T13:49:19;11.20;1.00
22578;DHT22;11455;52.390;13.028;2023-04-25T13:51:45;11.20;1.00
22578;DHT22;11455;52.390;13.028;2023-04-25T13:54:11;11.20;1.00
22578;DHT22;11455;52.390;13.028;2023-04-25T13:56:36;11.20;1.00
22578;DHT22;11455;52.390;13.028;2023-04-25T13:59:02;11.20;1.00
22578;DHT22;11455;52.390;13.028;2023-04-25T14:01:30;11.10;1.00
22578;DHT22;11455;52.390;13.028;2023-04-25T14:04:03;11.00;1.00
22578;DHT22;11455;52.390;13.028;2023-04-25T14:06:30;10.90;1.00
22578;DHT22;11455;52.390;13.028;2023-04-25T14:08:56;10.80;1.00
22578;DHT22;11455;52.390;13.028;2023-04-25T14:11:22;10.70;1.00
22578;DHT22;11455;52.390;13.028;2023-04-25T14:13:48;10.70;1.00
22578;DHT22;11455;52.390;13.028;2023-04-25T14:16:17;10.80;1.00
22578;DHT22;11455;52.390;13.028;2023-04-25T14:18:42;10.90;1.00
22578;DHT22;11455;52.390;13.028;2023-04-25T14:21:10;11.00;1.00
22578;DHT22;11455;52.390;13.028;2023-04-25T14:23:36;11.00;1.00
22578;DHT22;11455;52.390;13.028;2023-04-25T14:26:02;11.00;1.00
22578;DHT22;11455;52.390;13.028;2023-04-25T14:28:27;11.10;1.00
22578;DHT22;11455;52.390;13.028;2023-04-25T14:30:53;11.20;1.00
22578;DHT22;11455;52.390;13.028;2023-04-25T14:33:18;11.20;1.00
22578;DHT22;11455;52.390;13.028;2023-04-25T14:35:44;11.40;1.00
22578;DHT22;11455;52.390;13.028;2023-04-25T14:38:10;11.40;1.00
22578;DHT22;11455;52.390;13.028;2023-04-25T14:40:35;11.30;1.00
22578;DHT22;11455;52.390;13.028;2023-04-25T14:43:02;11.40;1.00
22578;DHT22;11455;52.390;13.028;2023-04-25T14:45:27;11.30;1.00
22578;DHT22;11455;52.390;13.028;2023-04-25T14:47:53;11.20;1.00
22578;DHT22;11455;52.390;13.028;2023-04-25T14:50:20;11.10;1.00
22578;DHT22;11455;52.390;13.028;2023-04-25T14:52:48;11.00;1.00
22578;DHT22;11455;52.390;13.028;2023-04-25T14:55:13;10.90;1.00
22578;DHT22;11455;52.390;13.028;2023-04-25T14:57:39;10.90;1.00
22578;DHT22;11455;52.390;13.028;2023-04-25T15:00:05;10.90;1.00
22578;DHT22;11455;52.390;13.028;2023-04-25T15:02:34;10.90;1.00
22578;DHT22;11455;52.390;13.028;2023-04-25T15:05:01;10.90;1.00
22578;DHT22;11455;52.390;13.028;2023-04-25T15:07:26;11.00;1.00
22578;DHT22;11455;52.390;13.028;2023-04-25T15:09:52;11.10;1.00
22578;DHT22;11455;52.390;13.028;2023-04-25T15:12:18;11.20;1.00
22578;DHT22;11455;52.390;13.028;2023-04-25T15:14:44;11.30;1.00
22578;DHT22;11455;52.390;13.028;2023-04-25T15:17:10;11.30;1.00
22578;DHT22;11455;52.390;13.028;2023-04-25T15:19:38;11.40;1.00
22578;DHT22;11455;52.390;13.028;2023-04-25T15:22:05;11.40;1.00
22578;DHT22;11455;52.390;13.028;2023-04-25T15:24:32;11.30;1.00
22578;DHT22;11455;52.390;13.028;2023-04-25T15:26:57;11.30;1.00
22578;DHT22;11455;52.390;13.028;2023-04-25T15:29:23;11.20;1.00
22578;DHT22;11455;52.390;13.028;2023-04-25T15:31:49;11.10;1.00
22578;DHT22;11455;52.390;13.028;2023-04-25T15:34:15;11.20;1.00
22578;DHT22;11455;52.390;13.028;2023-04-25T15:36:41;11.20;1.00
22578;DHT22;11455;52.390;13.028;2023-04-25T15:39:07;11.20;1.00
22578;DHT22;11455;52.390;13.028;2023-04-25T15:41:32;11.20;1.00
22578;DHT22;11455;52.390;13.028;2023-04-25T15:43:59;11.20;1.00
22578;DHT22;11455;52.390;13.028;2023-04-25T15:46:25;11.30;1.00
22578;DHT22;11455;52.390;13.028;2023-04-25T15:48:51;11.20;1.00
22578;DHT22;11455;52.390;13.028;2023-04-25T15:51:17;11.20;1.00
22578;DHT22;11455;52.390;13.028;2023-04-25T15:53:43;11.10;1.00
22578;DHT22;11455;52.390;13.028;2023-04-25T15:56:08;11.10;1.00